Terminal Aerodrome Forecast
Issued by NWS

Home | Current Version | Previous Version | Graphics & Text | Print | Product List | Glossary On
Versions: 1 2 3 4 5 6 7 8 9 10 11 12 13 14 15
000
FTUS43 KICT 260800 AAA
TAFRSL
TAF AMD
KRSL 260815Z 2608/2706 08012KT 6SM -TSRA BKN050CB
     FM260900 05010KT P6SM VCTS BKN060CB OVC090
     FM261600 15009KT P6SM SCT250=

USA.gov is the U.S. government's official web portal to all federal, state and local government web resources and services.